Unger, West Virginia
Current Conditions -  °F | °C
As of 10:53 AM on Monday 24 Nov 2014 (Local Time) from KMRB Reporting Station
Clear Clear  
Wind Chill: 66°   Ceiling: Unl
Heat Index: 66°   Visibility: 10mi
Dew Point: 53°   Wind: 16mph
Humidity: 63%   Direction: 190°S
Pressure: 29.62"   Gusts: 23mph
Location:  39.5563°N, 78.2182°W
Report Text: KMRB 241553Z 19014G20KT 10SM CLR 19/12 A2962 RMK AO2 SLP029 T01890117
Loading
Personal Weather Stations






























Interactive Weather Map New forecast layout! Learn more

10-Day Weather Forecast

Advertisements
Track Severe Weather on mobile